sensor_id;sensor_type;location;lat;lon;timestamp;pressure;altitude;pressure_sealevel;temperature
71630;BMP280;59479;51.902;8.212;2023-02-03T00:01:40;101715.03;;;8.76
71630;BMP280;59479;51.902;8.212;2023-02-03T00:04:06;101710.16;;;8.82
71630;BMP280;59479;51.902;8.212;2023-02-03T00:06:31;101709.88;;;8.70
71630;BMP280;59479;51.902;8.212;2023-02-03T00:08:57;101699.78;;;8.67
71630;BMP280;59479;51.902;8.212;2023-02-03T00:11:24;101695.75;;;8.74
71630;BMP280;59479;51.902;8.212;2023-02-03T00:13:49;101696.41;;;8.67
71630;BMP280;59479;51.902;8.212;2023-02-03T00:16:14;101692.34;;;8.72
71630;BMP280;59479;51.902;8.212;2023-02-03T00:18:40;101684.88;;;8.73
71630;BMP280;59479;51.902;8.212;2023-02-03T00:21:05;101688.41;;;8.81
71630;BMP280;59479;51.902;8.212;2023-02-03T00:23:31;101688.19;;;8.72
71630;BMP280;59479;51.902;8.212;2023-02-03T00:25:57;101685.00;;;8.78
71630;BMP280;59479;51.902;8.212;2023-02-03T00:28:30;101686.84;;;8.84
71630;BMP280;59479;51.902;8.212;2023-02-03T00:30:56;101675.13;;;8.85
71630;BMP280;59479;51.902;8.212;2023-02-03T00:33:24;101685.00;;;8.78
71630;BMP280;59479;51.902;8.212;2023-02-03T00:35:50;101684.97;;;8.76
71630;BMP280;59479;51.902;8.212;2023-02-03T00:38:15;101683.00;;;8.65
71630;BMP280;59479;51.902;8.212;2023-02-03T00:40:41;101690.72;;;8.74
71630;BMP280;59479;51.902;8.212;2023-02-03T00:43:06;101695.97;;;8.82
71630;BMP280;59479;51.902;8.212;2023-02-03T00:45:31;101692.47;;;8.76
71630;BMP280;59479;51.902;8.212;2023-02-03T00:47:57;101691.97;;;8.89
71630;BMP280;59479;51.902;8.212;2023-02-03T00:50:22;101692.81;;;8.89
71630;BMP280;59479;51.902;8.212;2023-02-03T00:52:47;101698.72;;;8.93
71630;BMP280;59479;51.902;8.212;2023-02-03T00:55:13;101702.00;;;8.89
71630;BMP280;59479;51.902;8.212;2023-02-03T00:57:38;101711.78;;;8.80
71630;BMP280;59479;51.902;8.212;2023-02-03T01:00:04;101711.78;;;8.80
71630;BMP280;59479;51.902;8.212;2023-02-03T01:02:29;101708.44;;;8.79
71630;BMP280;59479;51.902;8.212;2023-02-03T01:04:54;101715.03;;;8.76
71630;BMP280;59479;51.902;8.212;2023-02-03T01:07:20;101721.81;;;8.80
71630;BMP280;59479;51.902;8.212;2023-02-03T01:09:45;101729.50;;;8.86
71630;BMP280;59479;51.902;8.212;2023-02-03T01:12:11;101729.25;;;8.77
71630;BMP280;59479;51.902;8.212;2023-02-03T01:14:36;101731.16;;;8.87
71630;BMP280;59479;51.902;8.212;2023-02-03T01:17:01;101728.63;;;8.84
71630;BMP280;59479;51.902;8.212;2023-02-03T01:19:27;101721.09;;;8.84
71630;BMP280;59479;51.902;8.212;2023-02-03T01:21:52;101722.59;;;8.78
71630;BMP280;59479;51.902;8.212;2023-02-03T01:24:17;101720.22;;;8.83
71630;BMP280;59479;51.902;8.212;2023-02-03T01:26:43;101716.94;;;8.86
71630;BMP280;59479;51.902;8.212;2023-02-03T01:29:08;101726.22;;;8.90
71630;BMP280;59479;51.902;8.212;2023-02-03T01:31:36;101719.47;;;8.86
71630;BMP280;59479;51.902;8.212;2023-02-03T01:34:05;101723.34;;;8.75
71630;BMP280;59479;51.902;8.212;2023-02-03T01:36:32;101730.16;;;8.79
71630;BMP280;59479;51.902;8.212;2023-02-03T01:38:57;101730.25;;;8.83
71630;BMP280;59479;51.902;8.212;2023-02-03T01:41:26;101725.16;;;8.79
71630;BMP280;59479;51.902;8.212;2023-02-03T01:43:54;101723.44;;;8.78
71630;BMP280;59479;51.902;8.212;2023-02-03T01:46:34;101716.13;;;8.85
71630;BMP280;59479;51.902;8.212;2023-02-03T01:51:31;101709.09;;;8.73
71630;BMP280;59479;51.902;8.212;2023-02-03T01:53:57;101705.09;;;8.79
71630;BMP280;59479;51.902;8.212;2023-02-03T01:56:25;101693.56;;;8.87
71630;BMP280;59479;51.902;8.212;2023-02-03T01:58:52;101704.84;;;8.70
71630;BMP280;59479;51.902;8.212;2023-02-03T02:01:17;101712.56;;;8.78
71630;BMP280;59479;51.902;8.212;2023-02-03T02:03:47;101708.41;;;8.78
71630;BMP280;59479;51.902;8.212;2023-02-03T02:06:14;101707.53;;;8.76
71630;BMP280;59479;51.902;8.212;2023-02-03T02:08:41;101696.94;;;8.87
71630;BMP280;59479;51.902;8.212;2023-02-03T02:11:08;101686.03;;;8.87
71630;BMP280;59479;51.902;8.212;2023-02-03T02:13:34;101676.97;;;8.92
71630;BMP280;59479;51.902;8.212;2023-02-03T02:29:58;101643.50;;;8.90
71630;BMP280;59479;51.902;8.212;2023-02-03T02:38:16;101612.44;;;8.83
71630;BMP280;59479;51.902;8.212;2023-02-03T02:45:47;101617.50;;;8.86
71630;BMP280;59479;51.902;8.212;2023-02-03T02:48:25;101617.50;;;8.86
71630;BMP280;59479;51.902;8.212;2023-02-03T02:50:54;101618.41;;;8.90
71630;BMP280;59479;51.902;8.212;2023-02-03T02:53:24;101637.75;;;8.94
71630;BMP280;59479;51.902;8.212;2023-02-03T02:55:51;101646.19;;;8.97
71630;BMP280;59479;51.902;8.212;2023-02-03T02:58:18;101669.53;;;8.95
71630;BMP280;59479;51.902;8.212;2023-02-03T03:00:44;101676.25;;;8.96
71630;BMP280;59479;51.902;8.212;2023-02-03T03:03:18;101685.16;;;8.85
71630;BMP280;59479;51.902;8.212;2023-02-03T03:05:56;101674.38;;;8.87
71630;BMP280;59479;51.902;8.212;2023-02-03T03:08:46;101665.03;;;8.82
71630;BMP280;59479;51.902;8.212;2023-02-03T03:11:12;101656.81;;;8.87
71630;BMP280;59479;51.902;8.212;2023-02-03T03:13:41;101657.06;;;8.98
71630;BMP280;59479;51.902;8.212;2023-02-03T03:16:09;101660.97;;;8.87
71630;BMP280;59479;51.902;8.212;2023-02-03T03:18:43;101660.16;;;8.88
71630;BMP280;59479;51.902;8.212;2023-02-03T03:21:16;101646.88;;;8.92
71630;BMP280;59479;51.902;8.212;2023-02-03T03:23:46;101629.19;;;8.84
71630;BMP280;59479;51.902;8.212;2023-02-03T03:26:27;101632.63;;;8.89
71630;BMP280;59479;51.902;8.212;2023-02-03T03:29:13;101631.09;;;8.96
71630;BMP280;59479;51.902;8.212;2023-02-03T03:31:39;101644.38;;;8.92
71630;BMP280;59479;51.902;8.212;2023-02-03T03:34:07;101632.66;;;8.91
71630;BMP280;59479;51.902;8.212;2023-02-03T03:36:45;101640.94;;;8.88
71630;BMP280;59479;51.902;8.212;2023-02-03T03:39:23;101630.22;;;8.94
71630;BMP280;59479;51.902;8.212;2023-02-03T03:41:57;101633.63;;;8.96
71630;BMP280;59479;51.902;8.212;2023-02-03T03:44:30;101642.00;;;8.98
71630;BMP280;59479;51.902;8.212;2023-02-03T03:47:15;101645.19;;;8.91
71630;BMP280;59479;51.902;8.212;2023-02-03T03:49:44;101631.97;;;8.98
71630;BMP280;59479;51.902;8.212;2023-02-03T03:52:15;101643.84;;;9.05
71630;BMP280;59479;51.902;8.212;2023-02-03T03:54:43;101633.63;;;8.96
71630;BMP280;59479;51.902;8.212;2023-02-03T03:57:14;101626.81;;;8.92
71630;BMP280;59479;51.902;8.212;2023-02-03T03:59:44;101621.75;;;8.89
71630;BMP280;59479;51.902;8.212;2023-02-03T04:02:12;101619.25;;;8.90
71630;BMP280;59479;51.902;8.212;2023-02-03T04:04:39;101621.81;;;8.92
71630;BMP280;59479;51.902;8.212;2023-02-03T04:07:05;101615.84;;;8.87
71630;BMP280;59479;51.902;8.212;2023-02-03T04:09:30;101623.38;;;8.87
71630;BMP280;59479;51.902;8.212;2023-02-03T04:11:56;101598.28;;;8.87
71630;BMP280;59479;51.902;8.212;2023-02-03T04:14:34;101620.84;;;8.87
71630;BMP280;59479;51.902;8.212;2023-02-03T04:17:02;101603.44;;;8.93
71630;BMP280;59479;51.902;8.212;2023-02-03T04:19:27;101599.13;;;8.86
71630;BMP280;59479;51.902;8.212;2023-02-03T04:21:52;101589.91;;;8.85
71630;BMP280;59479;51.902;8.212;2023-02-03T04:24:17;101609.94;;;8.85
71630;BMP280;59479;51.902;8.212;2023-02-03T04:26:43;101616.44;;;8.77
71630;BMP280;59479;51.902;8.212;2023-02-03T04:29:08;101621.81;;;8.92
71630;BMP280;59479;51.902;8.212;2023-02-03T04:31:34;101606.91;;;8.98
71630;BMP280;59479;51.902;8.212;2023-02-03T04:33:59;101616.06;;;8.96
71630;BMP280;59479;51.902;8.212;2023-02-03T04:36:25;101598.25;;;8.84
71630;BMP280;59479;51.902;8.212;2023-02-03T04:38:50;101608.31;;;8.85
71630;BMP280;59479;51.902;8.212;2023-02-03T04:41:16;101615.91;;;8.90
71630;BMP280;59479;51.902;8.212;2023-02-03T04:43:42;101618.41;;;8.90
71630;BMP280;59479;51.902;8.212;2023-02-03T04:46:07;101606.72;;;8.89
71630;BMP280;59479;51.902;8.212;2023-02-03T04:48:33;101613.28;;;8.84
71630;BMP280;59479;51.902;8.212;2023-02-03T04:51:03;101602.63;;;8.92
71630;BMP280;59479;51.902;8.212;2023-02-03T04:53:30;101615.91;;;8.90
71630;BMP280;59479;51.902;8.212;2023-02-03T04:55:55;101610.81;;;8.87
71630;BMP280;59479;51.902;8.212;2023-02-03T04:58:21;101600.84;;;8.88
71630;BMP280;59479;51.902;8.212;2023-02-03T05:00:46;101590.91;;;8.93
71630;BMP280;59479;51.902;8.212;2023-02-03T05:03:12;101576.75;;;8.95
71630;BMP280;59479;51.902;8.212;2023-02-03T05:05:37;101584.16;;;8.89
71630;BMP280;59479;51.902;8.212;2023-02-03T05:08:02;101567.56;;;8.94
71630;BMP280;59479;51.902;8.212;2023-02-03T05:10:28;101567.47;;;8.91
71630;BMP280;59479;51.902;8.212;2023-02-03T05:12:53;101565.09;;;8.97
71630;BMP280;59479;51.902;8.212;2023-02-03T05:15:18;101568.50;;;8.99
71630;BMP280;59479;51.902;8.212;2023-02-03T05:17:44;101578.19;;;8.84
71630;BMP280;59479;51.902;8.212;2023-02-03T05:20:09;101569.84;;;8.85
71630;BMP280;59479;51.902;8.212;2023-02-03T05:22:35;101566.53;;;8.86
71630;BMP280;59479;51.902;8.212;2023-02-03T05:25:01;101565.03;;;8.94
71630;BMP280;59479;51.902;8.212;2023-02-03T05:27:26;101550.84;;;8.94
71630;BMP280;59479;51.902;8.212;2023-02-03T05:29:52;101555.06;;;8.97
71630;BMP280;59479;51.902;8.212;2023-02-03T05:32:17;101555.06;;;8.97
71630;BMP280;59479;51.902;8.212;2023-02-03T05:34:42;101565.09;;;8.97
71630;BMP280;59479;51.902;8.212;2023-02-03T05:37:08;101566.63;;;8.90
71630;BMP280;59479;51.902;8.212;2023-02-03T05:39:33;101553.38;;;8.96
71630;BMP280;59479;51.902;8.212;2023-02-03T05:41:58;101555.03;;;8.95
71630;BMP280;59479;51.902;8.212;2023-02-03T05:44:25;101544.78;;;8.85
71630;BMP280;59479;51.902;8.212;2023-02-03T05:46:53;101554.97;;;8.92
71630;BMP280;59479;51.902;8.212;2023-02-03T05:49:18;101554.03;;;8.87
71630;BMP280;59479;51.902;8.212;2023-02-03T05:51:44;101549.78;;;8.85
71630;BMP280;59479;51.902;8.212;2023-02-03T05:54:10;101557.50;;;8.92
71630;BMP280;59479;51.902;8.212;2023-02-03T05:56:36;101544.13;;;8.93
71630;BMP280;59479;51.902;8.212;2023-02-03T05:59:01;101565.03;;;8.95
71630;BMP280;59479;51.902;8.212;2023-02-03T06:01:26;101558.31;;;8.93
71630;BMP280;59479;51.902;8.212;2023-02-03T06:03:52;101558.66;;;9.08
71630;BMP280;59479;51.902;8.212;2023-02-03T06:06:17;101560.09;;;8.98
71630;BMP280;59479;51.902;8.212;2023-02-03T06:08:43;101564.31;;;8.99
71630;BMP280;59479;51.902;8.212;2023-02-03T06:11:09;101579.03;;;8.84
71630;BMP280;59479;51.902;8.212;2023-02-03T06:13:34;101559.97;;;8.91
71630;BMP280;59479;51.902;8.212;2023-02-03T06:16:00;101558.25;;;8.90
71630;BMP280;59479;51.902;8.212;2023-02-03T06:18:25;101565.84;;;8.93
71630;BMP280;59479;51.902;8.212;2023-02-03T06:20:51;101560.78;;;8.91
71630;BMP280;59479;51.902;8.212;2023-02-03T06:23:16;101554.97;;;8.92
71630;BMP280;59479;51.902;8.212;2023-02-03T06:25:46;101568.28;;;8.90
71630;BMP280;59479;51.902;8.212;2023-02-03T06:28:12;101565.75;;;8.88
71630;BMP280;59479;51.902;8.212;2023-02-03T06:30:37;101572.66;;;8.98
71630;BMP280;59479;51.902;8.212;2023-02-03T06:33:03;101568.53;;;9.02
71630;BMP280;59479;51.902;8.212;2023-02-03T06:35:28;101575.84;;;8.91
71630;BMP280;59479;51.902;8.212;2023-02-03T06:37:54;101576.41;;;8.80
71630;BMP280;59479;51.902;8.212;2023-02-03T06:40:19;101557.53;;;8.94
71630;BMP280;59479;51.902;8.212;2023-02-03T06:42:45;101565.91;;;8.96
71630;BMP280;59479;51.902;8.212;2023-02-03T06:45:11;101568.50;;;8.99
71630;BMP280;59479;51.902;8.212;2023-02-03T06:47:41;101559.94;;;8.89
71630;BMP280;59479;51.902;8.212;2023-02-03T06:50:07;101555.84;;;8.94
71630;BMP280;59479;51.902;8.212;2023-02-03T06:52:32;101571.69;;;8.93
71630;BMP280;59479;51.902;8.212;2023-02-03T06:54:58;101564.09;;;8.89
71630;BMP280;59479;51.902;8.212;2023-02-03T06:57:23;101578.31;;;8.90
71630;BMP280;59479;51.902;8.212;2023-02-03T06:59:48;101573.38;;;8.93
71630;BMP280;59479;51.902;8.212;2023-02-03T07:02:14;101567.47;;;8.91
71630;BMP280;59479;51.902;8.212;2023-02-03T07:04:39;101586.78;;;8.95
71630;BMP280;59479;51.902;8.212;2023-02-03T07:07:05;101581.66;;;8.89
71630;BMP280;59479;51.902;8.212;2023-02-03T07:09:30;101581.66;;;8.89
71630;BMP280;59479;51.902;8.212;2023-02-03T07:11:56;101570.91;;;8.94
71630;BMP280;59479;51.902;8.212;2023-02-03T07:14:21;101580.81;;;8.90
71630;BMP280;59479;51.902;8.212;2023-02-03T07:16:46;101584.16;;;8.90
71630;BMP280;59479;51.902;8.212;2023-02-03T07:19:12;101574.97;;;8.89
71630;BMP280;59479;51.902;8.212;2023-02-03T07:21:37;101559.97;;;8.91
71630;BMP280;59479;51.902;8.212;2023-02-03T07:24:03;101559.03;;;8.86
71630;BMP280;59479;51.902;8.212;2023-02-03T07:26:28;101557.44;;;8.91
71630;BMP280;59479;51.902;8.212;2023-02-03T07:28:54;101553.50;;;9.02
71630;BMP280;59479;51.902;8.212;2023-02-03T07:31:19;101562.41;;;8.88
71630;BMP280;59479;51.902;8.212;2023-02-03T07:33:44;101568.34;;;8.93
71630;BMP280;59479;51.902;8.212;2023-02-03T07:36:10;101564.97;;;8.91
71630;BMP280;59479;51.902;8.212;2023-02-03T07:38:36;101565.81;;;8.91
71630;BMP280;59479;51.902;8.212;2023-02-03T07:41:04;101553.31;;;8.93
71630;BMP280;59479;51.902;8.212;2023-02-03T07:43:30;101564.09;;;8.90
71630;BMP280;59479;51.902;8.212;2023-02-03T07:45:55;101560.00;;;8.92
71630;BMP280;59479;51.902;8.212;2023-02-03T07:48:22;101548.25;;;8.91
71630;BMP280;59479;51.902;8.212;2023-02-03T07:50:47;101549.78;;;8.85
71630;BMP280;59479;51.902;8.212;2023-02-03T07:53:15;101558.88;;;8.80
71630;BMP280;59479;51.902;8.212;2023-02-03T07:55:40;101546.94;;;8.70
71630;BMP280;59479;51.902;8.212;2023-02-03T07:58:06;101546.34;;;8.80
71630;BMP280;59479;51.902;8.212;2023-02-03T08:00:32;101544.69;;;8.80
71630;BMP280;59479;51.902;8.212;2023-02-03T08:02:57;101537.97;;;8.79
71630;BMP280;59479;51.902;8.212;2023-02-03T08:05:22;101549.03;;;8.87
71630;BMP280;59479;51.902;8.212;2023-02-03T08:07:48;101539.56;;;8.76
71630;BMP280;59479;51.902;8.212;2023-02-03T08:10:13;101539.69;;;8.80
71630;BMP280;59479;51.902;8.212;2023-02-03T08:12:39;101538.84;;;8.81
71630;BMP280;59479;51.902;8.212;2023-02-03T08:15:07;101542.41;;;8.91
71630;BMP280;59479;51.902;8.212;2023-02-03T08:17:33;101535.47;;;8.79
71630;BMP280;59479;51.902;8.212;2023-02-03T08:19:58;101552.38;;;8.88
71630;BMP280;59479;51.902;8.212;2023-02-03T08:22:24;101554.88;;;8.88
71630;BMP280;59479;51.902;8.212;2023-02-03T08:24:49;101550.72;;;8.90
71630;BMP280;59479;51.902;8.212;2023-02-03T08:27:18;101549.22;;;8.96
71630;BMP280;59479;51.902;8.212;2023-02-03T08:29:44;101555.94;;;8.97
71630;BMP280;59479;51.902;8.212;2023-02-03T08:32:11;101551.41;;;8.83
71630;BMP280;59479;51.902;8.212;2023-02-03T08:34:37;101559.09;;;8.90
71630;BMP280;59479;51.902;8.212;2023-02-03T08:37:03;101547.44;;;8.91
71630;BMP280;59479;51.902;8.212;2023-02-03T08:39:28;101559.97;;;8.91
71630;BMP280;59479;51.902;8.212;2023-02-03T08:41:54;101555.06;;;8.97
71630;BMP280;59479;51.902;8.212;2023-02-03T08:44:19;101549.84;;;8.88
71630;BMP280;59479;51.902;8.212;2023-02-03T08:46:49;101551.78;;;8.99
71630;BMP280;59479;51.902;8.212;2023-02-03T08:49:14;101545.00;;;8.94
71630;BMP280;59479;51.902;8.212;2023-02-03T08:51:39;101549.38;;;9.05
71630;BMP280;59479;51.902;8.212;2023-02-03T08:54:05;101540.75;;;8.91
71630;BMP280;59479;51.902;8.212;2023-02-03T08:56:30;101546.84;;;9.04
71630;BMP280;59479;51.902;8.212;2023-02-03T08:58:58;101534.38;;;9.07
71630;BMP280;59479;51.902;8.212;2023-02-03T09:01:23;101533.41;;;8.99
71630;BMP280;59479;51.902;8.212;2023-02-03T09:03:49;101538.34;;;8.96
71630;BMP280;59479;51.902;8.212;2023-02-03T09:06:14;101533.34;;;8.97
71630;BMP280;59479;51.902;8.212;2023-02-03T09:08:43;101521.72;;;9.01
71630;BMP280;59479;51.902;8.212;2023-02-03T09:11:12;101528.25;;;8.93
71630;BMP280;59479;51.902;8.212;2023-02-03T09:13:39;101536.78;;;9.01
71630;BMP280;59479;51.902;8.212;2023-02-03T09:16:08;101531.75;;;9.01
71630;BMP280;59479;51.902;8.212;2023-02-03T09:18:33;101536.88;;;9.07
71630;BMP280;59479;51.902;8.212;2023-02-03T09:21:02;101534.47;;;9.11
71630;BMP280;59479;51.902;8.212;2023-02-03T09:23:28;101534.50;;;9.13
71630;BMP280;59479;51.902;8.212;2023-02-03T09:25:53;101536.00;;;9.05
71630;BMP280;59479;51.902;8.212;2023-02-03T09:28:19;101542.03;;;9.13
71630;BMP280;59479;51.902;8.212;2023-02-03T09:30:44;101553.72;;;9.14
71630;BMP280;59479;51.902;8.212;2023-02-03T09:33:11;101552.13;;;9.16
71630;BMP280;59479;51.902;8.212;2023-02-03T09:35:36;101537.91;;;9.16
71630;BMP280;59479;51.902;8.212;2023-02-03T09:38:02;101548.91;;;9.22
71630;BMP280;59479;51.902;8.212;2023-02-03T09:40:32;101561.50;;;9.24
71630;BMP280;59479;51.902;8.212;2023-02-03T09:45:42;101556.34;;;9.18
71630;BMP280;59479;51.902;8.212;2023-02-03T09:48:14;101556.25;;;9.14
71630;BMP280;59479;51.902;8.212;2023-02-03T09:50:43;101574.78;;;9.20
71630;BMP280;59479;51.902;8.212;2023-02-03T09:55:49;101553.94;;;9.22
71630;BMP280;59479;51.902;8.212;2023-02-03T09:58:17;101547.97;;;9.18
71630;BMP280;59479;51.902;8.212;2023-02-03T10:01:02;101556.47;;;9.24
71630;BMP280;59479;51.902;8.212;2023-02-03T10:03:45;101550.00;;;9.35
71630;BMP280;59479;51.902;8.212;2023-02-03T10:06:48;101536.44;;;9.27
71630;BMP280;59479;51.902;8.212;2023-02-03T10:09:29;101543.09;;;9.25
71630;BMP280;59479;51.902;8.212;2023-02-03T10:13:14;101549.06;;;9.30
71630;BMP280;59479;51.902;8.212;2023-02-03T10:17:59;101563.16;;;9.25
71630;BMP280;59479;51.902;8.212;2023-02-03T10:20:37;101568.25;;;9.28
71630;BMP280;59479;51.902;8.212;2023-02-03T10:23:11;101579.25;;;9.34
71630;BMP280;59479;51.902;8.212;2023-02-03T10:25:51;101575.13;;;9.36
71630;BMP280;59479;51.902;8.212;2023-02-03T10:28:25;101582.41;;;9.24
71630;BMP280;59479;51.902;8.212;2023-02-03T10:31:00;101586.72;;;9.31
71630;BMP280;59479;51.902;8.212;2023-02-03T10:33:30;101587.41;;;9.24
71630;BMP280;59479;51.902;8.212;2023-02-03T10:36:22;101586.75;;;9.33
71630;BMP280;59479;51.902;8.212;2023-02-03T10:39:10;101595.81;;;9.26
71630;BMP280;59479;51.902;8.212;2023-02-03T10:41:37;101591.69;;;9.30
71630;BMP280;59479;51.902;8.212;2023-02-03T10:44:05;101591.16;;;9.44
71630;BMP280;59479;51.902;8.212;2023-02-03T10:46:33;101608.66;;;9.41
71630;BMP280;59479;51.902;8.212;2023-02-03T10:48:59;101605.34;;;9.42
71630;BMP280;59479;51.902;8.212;2023-02-03T10:51:29;101605.03;;;9.27
71630;BMP280;59479;51.902;8.212;2023-02-03T10:53:59;101604.25;;;9.30
71630;BMP280;59479;51.902;8.212;2023-02-03T10:56:35;101592.69;;;9.36
71630;BMP280;59479;51.902;8.212;2023-02-03T10:59:01;101602.59;;;9.30
71630;BMP280;59479;51.902;8.212;2023-02-03T11:04:08;101608.97;;;9.56
71630;BMP280;59479;51.902;8.212;2023-02-03T11:07:03;101591.16;;;9.44
71630;BMP280;59479;51.902;8.212;2023-02-03T11:09:38;101597.88;;;9.44
71630;BMP280;59479;51.902;8.212;2023-02-03T11:12:15;101602.97;;;9.50
71630;BMP280;59479;51.902;8.212;2023-02-03T11:17:25;101618.75;;;9.43
71630;BMP280;59479;51.902;8.212;2023-02-03T11:19:53;101618.88;;;9.49
71630;BMP280;59479;51.902;8.212;2023-02-03T11:22:30;101607.00;;;9.42
71630;BMP280;59479;51.902;8.212;2023-02-03T11:24:57;101594.41;;;9.40
71630;BMP280;59479;51.902;8.212;2023-02-03T11:27:23;101593.53;;;9.38
71630;BMP280;59479;51.902;8.212;2023-02-03T11:29:53;101605.97;;;9.32
71630;BMP280;59479;51.902;8.212;2023-02-03T11:32:35;101592.03;;;9.46
71630;BMP280;59479;51.902;8.212;2023-02-03T11:35:23;101601.31;;;9.50
71630;BMP280;59479;51.902;8.212;2023-02-03T11:37:54;101588.13;;;9.60
71630;BMP280;59479;51.902;8.212;2023-02-03T11:50:30;101613.78;;;9.46
71630;BMP280;59479;51.902;8.212;2023-02-03T12:01:32;101619.91;;;9.60
71630;BMP280;59479;51.902;8.212;2023-02-03T12:09:51;101626.16;;;9.38
71630;BMP280;59479;51.902;8.212;2023-02-03T12:15:02;101641.47;;;9.50
71630;BMP280;59479;51.902;8.212;2023-02-03T12:17:35;101649.81;;;9.49
71630;BMP280;59479;51.902;8.212;2023-02-03T12:28:31;101678.63;;;9.28
71630;BMP280;59479;51.902;8.212;2023-02-03T12:31:19;101673.75;;;9.34
71630;BMP280;59479;51.902;8.212;2023-02-03T12:33:51;101669.06;;;9.49
71630;BMP280;59479;51.902;8.212;2023-02-03T12:36:23;101678.16;;;9.45
71630;BMP280;59479;51.902;8.212;2023-02-03T12:38:55;101691.66;;;9.50
71630;BMP280;59479;51.902;8.212;2023-02-03T12:41:27;101685.78;;;9.50
71630;BMP280;59479;51.902;8.212;2023-02-03T12:43:59;101689.16;;;9.49
71630;BMP280;59479;51.902;8.212;2023-02-03T12:46:45;101683.41;;;9.54
71630;BMP280;59479;51.902;8.212;2023-02-03T12:49:40;101662.56;;;9.58
71630;BMP280;59479;51.902;8.212;2023-02-03T12:52:25;101675.94;;;9.59
71630;BMP280;59479;51.902;8.212;2023-02-03T12:57:47;101666.13;;;9.69
71630;BMP280;59479;51.902;8.212;2023-02-03T13:00:17;101675.00;;;9.52
71630;BMP280;59479;51.902;8.212;2023-02-03T13:03:01;101671.66;;;9.53
71630;BMP280;59479;51.902;8.212;2023-02-03T13:05:47;101675.00;;;9.52
71630;BMP280;59479;51.902;8.212;2023-02-03T13:08:35;101675.00;;;9.52
71630;BMP280;59479;51.902;8.212;2023-02-03T13:13:47;101686.00;;;9.60
71630;BMP280;59479;51.902;8.212;2023-02-03T13:16:16;101679.19;;;9.53
71630;BMP280;59479;51.902;8.212;2023-02-03T13:18:48;101676.66;;;9.53
71630;BMP280;59479;51.902;8.212;2023-02-03T13:21:16;101673.44;;;9.57
71630;BMP280;59479;51.902;8.212;2023-02-03T13:23:42;101667.59;;;9.60
71630;BMP280;59479;51.902;8.212;2023-02-03T13:34:40;101646.97;;;9.74
71630;BMP280;59479;51.902;8.212;2023-02-03T13:42:36;101654.31;;;9.65
71630;BMP280;59479;51.902;8.212;2023-02-03T13:47:31;101663.50;;;9.63
71630;BMP280;59479;51.902;8.212;2023-02-03T13:50:00;101684.41;;;9.62
71630;BMP280;59479;51.902;8.212;2023-02-03T13:52:34;101690.09;;;9.55
71630;BMP280;59479;51.902;8.212;2023-02-03T13:55:01;101688.53;;;9.60
71630;BMP280;59479;51.902;8.212;2023-02-03T13:57:35;101696.28;;;9.70
71630;BMP280;59479;51.902;8.212;2023-02-03T14:00:10;101706.06;;;9.59
71630;BMP280;59479;51.902;8.212;2023-02-03T14:02:52;101698.53;;;9.57
71630;BMP280;59479;51.902;8.212;2023-02-03T14:16:45;101717.16;;;9.68
71630;BMP280;59479;51.902;8.212;2023-02-03T14:24:12;101730.31;;;9.58
71630;BMP280;59479;51.902;8.212;2023-02-03T14:26:42;101732.03;;;9.59
71630;BMP280;59479;51.902;8.212;2023-02-03T14:29:09;101727.06;;;9.62
71630;BMP280;59479;51.902;8.212;2023-02-03T14:31:55;101734.53;;;9.59
71630;BMP280;59479;51.902;8.212;2023-02-03T14:34:44;101739.84;;;9.72
71630;BMP280;59479;51.902;8.212;2023-02-03T14:37:28;101743.53;;;9.50
71630;BMP280;59479;51.902;8.212;2023-02-03T14:45:41;101755.56;;;9.64
71630;BMP280;59479;51.902;8.212;2023-02-03T14:58:55;101762.75;;;9.49
71630;BMP280;59479;51.902;8.212;2023-02-03T15:06:40;101791.28;;;9.53
71630;BMP280;59479;51.902;8.212;2023-02-03T15:09:29;101796.78;;;9.38
71630;BMP280;59479;51.902;8.212;2023-02-03T15:11:55;101800.38;;;9.48
71630;BMP280;59479;51.902;8.212;2023-02-03T15:14:26;101812.72;;;9.40
71630;BMP280;59479;51.902;8.212;2023-02-03T15:17:09;101818.56;;;9.39
71630;BMP280;59479;51.902;8.212;2023-02-03T15:19:39;101810.47;;;9.51
71630;BMP280;59479;51.902;8.212;2023-02-03T15:22:19;101814.75;;;9.55
71630;BMP280;59479;51.902;8.212;2023-02-03T15:24:44;101821.16;;;9.42
71630;BMP280;59479;51.902;8.212;2023-02-03T15:27:22;101828.09;;;9.52
71630;BMP280;59479;51.902;8.212;2023-02-03T15:29:48;101834.06;;;9.57
71630;BMP280;59479;51.902;8.212;2023-02-03T15:32:38;101837.81;;;9.39
71630;BMP280;59479;51.902;8.212;2023-02-03T15:35:06;101838.78;;;9.45
71630;BMP280;59479;51.902;8.212;2023-02-03T15:37:48;101850.44;;;9.43
71630;BMP280;59479;51.902;8.212;2023-02-03T15:40:20;101847.13;;;9.44
71630;BMP280;59479;51.902;8.212;2023-02-03T15:42:57;101858.09;;;9.48
71630;BMP280;59479;51.902;8.212;2023-02-03T15:45:30;101859.97;;;9.56
71630;BMP280;59479;51.902;8.212;2023-02-03T15:48:12;101861.59;;;9.54
71630;BMP280;59479;51.902;8.212;2023-02-03T15:56:24;101849.72;;;9.47
71630;BMP280;59479;51.902;8.212;2023-02-03T15:58:52;101864.19;;;9.57
71630;BMP280;59479;51.902;8.212;2023-02-03T16:01:20;101865.66;;;9.49
71630;BMP280;59479;51.902;8.212;2023-02-03T16:03:50;101870.72;;;9.51
71630;BMP280;59479;51.902;8.212;2023-02-03T16:08:48;101889.03;;;9.48
71630;BMP280;59479;51.902;8.212;2023-02-03T16:13:58;101876.72;;;9.23
71630;BMP280;59479;51.902;8.212;2023-02-03T16:16:25;101893.56;;;9.27
71630;BMP280;59479;51.902;8.212;2023-02-03T16:18:57;101898.88;;;9.39
71630;BMP280;59479;51.902;8.212;2023-02-03T16:21:28;101899.03;;;9.47
71630;BMP280;59479;51.902;8.212;2023-02-03T16:23:55;101914.63;;;9.35
71630;BMP280;59479;51.902;8.212;2023-02-03T16:26:29;101918.94;;;9.39
71630;BMP280;59479;51.902;8.212;2023-02-03T16:28:56;101917.41;;;9.44
71630;BMP280;59479;51.902;8.212;2023-02-03T16:31:44;101916.44;;;9.39
71630;BMP280;59479;51.902;8.212;2023-02-03T16:34:28;101927.56;;;9.49
71630;BMP280;59479;51.902;8.212;2023-02-03T16:37:22;101924.03;;;9.42
71630;BMP280;59479;51.902;8.212;2023-02-03T16:40:08;101930.34;;;9.28
71630;BMP280;59479;51.902;8.212;2023-02-03T16:42:52;101933.78;;;9.30
71630;BMP280;59479;51.902;8.212;2023-02-03T16:45:35;101944.44;;;9.23
71630;BMP280;59479;51.902;8.212;2023-02-03T16:48:19;101946.31;;;9.30
71630;BMP280;59479;51.902;8.212;2023-02-03T16:51:09;101950.53;;;9.31